Flight Track Log - Related Links

Times and Time Zones

All times are in EDT time to prevent confusion due to time zone crossing. See the TF-LLX flight status page for this flight to view local times or setup timezone preferences in your user account.

Time Position Orientation Groundspeed Altitude Reporting Facility
EDT Latitude Longitude Course Direction KTS MPH feet Rate Location/Type
Tue 08:48:22 PM 38.9720 -77.5320 317° Northwest 219 252 2,300  Level FlightAware ADS-B
Tue 08:48:32 PM 38.9810 -77.5420 319° Northwest 236 272 2,600 1,800 Climbing FlightAware ADS-B
Tue 08:49:02 PM 39.0060 -77.5710 318° Northwest 271 312 3,500 2,133 Climbing FlightAware ADS-B
Tue 08:49:17 PM 39.0230 -77.5820 333° Northwest 286 329 4,200 3,491 Climbing FlightAware ADS-B
Tue 08:49:57 PM 39.0690 -77.5640 17° North 281 323 6,700 3,257 Climbing FlightAware ADS-B
Tue 08:50:27 PM 39.0960 -77.5300 44° Northeast 292 336 8,000 2,400 Climbing FlightAware ADS-B
Tue 08:50:47 PM 39.1170 -77.4960 51° Northeast 302 348 8,700 873 Climbing FlightAware ADS-B
Tue 08:51:22 PM 39.1380 -77.4540 57° Northeast 304 350 8,800 92 Climbing FlightAware ADS-B
Tue 08:51:52 PM 39.1610 -77.4050 59° Northeast 302 348 8,800  Level FlightAware ADS-B
Tue 08:52:07 PM 39.1740 -77.3790 57° Northeast 304 350 8,800  Level FlightAware ADS-B
Tue 08:52:47 PM 39.2020 -77.3210 58° Northeast 305 351 8,800  Level FlightAware ADS-B
Tue 08:53:12 PM 39.2230 -77.2760 59° Northeast 305 351 8,800 267 Level FlightAware ADS-B
Tue 08:53:32 PM 39.2360 -77.2490 58° Northeast 307 353 9,000 700 Climbing FlightAware ADS-B
Tue 08:54:12 PM 39.2650 -77.1900 58° Northeast 310 357 9,500 1,200 Climbing FlightAware ADS-B
Tue 08:54:47 PM 39.2930 -77.1320 58° Northeast 329 379 10,500 1,467 Climbing FlightAware ADS-B
Tue 08:55:42 PM 39.3330 -77.0210 65° Northeast 395 455 11,700 1,520 Climbing FlightAware ADS-B
Tue 08:56:02 PM 39.3310 -76.9710 93° East 401 461 12,400 2,000 Climbing FlightAware ADS-B
Tue 08:56:42 PM 39.3200 -76.8820 99° East 413 475 13,700 1,120 Climbing FlightAware ADS-B
Tue 08:57:17 PM 39.3080 -76.7920 100° East 413 475 13,800 800 Climbing FlightAware ADS-B
Tue 08:58:12 PM 39.2910 -76.6530 99° East 417 480 14,900 960 Climbing FlightAware ADS-B
Tue 08:58:32 PM 39.2826 -76.5888 100° East 422 486 15,000 941 Climbing FlightAware ADS-B
Tue 08:59:03 PM 39.2728 -76.5091 99° East 423 487 15,700 1,905 Climbing FlightAware ADS-B
Tue 08:59:35 PM 39.2630 -76.4319 99° East 424 488 17,000 2,381 Climbing FlightAware ADS-B
Tue 09:00:06 PM 39.2530 -76.3538 99° East 432 497 18,200 2,129 Climbing FlightAware ADS-B
Tue 09:00:37 PM 39.2427 -76.2743 99° East 441 507 19,200 1,935 Climbing FlightAware ADS-B
Tue 09:01:08 PM 39.2324 -76.1934 99° East 447 514 20,200 1,839 Climbing FlightAware ADS-B
Tue 09:01:39 PM 39.2216 -76.1113 100° East 456 525 21,100 1,781 Climbing FlightAware ADS-B
Tue 09:02:12 PM 39.2099 -76.0220 100° East 462 532 22,100 1,964 Climbing FlightAware ADS-B
Tue 09:02:34 PM 39.2021 -75.9625 100° East 462 532 22,900 1,714 Climbing FlightAware ADS-B
Tue 09:02:40 PM 39.2011 -75.9459 94° East 464 534 22,900 429 Level FlightAware ADS-B
Tue 09:02:48 PM 39.2015 -75.9239 89° East 464 534 23,000 333 Climbing FlightAware ADS-B
Tue 09:02:58 PM 39.2050 -75.8967 81° East 464 534 23,000 400 Level FlightAware ADS-B
Tue 09:03:03 PM 39.2084 -75.8833 72° East 463 533 23,100 1,500 Climbing FlightAware ADS-B
Tue 09:03:10 PM 39.2142 -75.8657 67° East 459 528 23,300 1,800 Climbing FlightAware ADS-B
Tue 09:03:13 PM 39.2172 -75.8584 62° Northeast 458 527 23,400 2,000 Climbing FlightAware ADS-B
Tue 09:03:19 PM 39.2241 -75.8445 57° Northeast 459 528 23,600 1,600 Climbing FlightAware ADS-B
Tue 09:03:28 PM 39.2349 -75.8249 55° Northeast 459 528 23,800 1,538 Climbing FlightAware ADS-B
Tue 09:03:58 PM 39.2794 -75.7654 46° Northeast 463 533 24,600 2,032 Climbing FlightAware ADS-B
Tue 09:04:30 PM 39.3285 -75.7031 44° Northeast 458 527 25,900 2,571 Climbing FlightAware ADS-B
Tue 09:05:01 PM 39.3749 -75.6431 45° Northeast 447 514 27,300 1,935 Climbing FlightAware ADS-B
Tue 09:05:32 PM 39.4200 -75.5859 44° Northeast 455 524 27,900 1,258 Climbing FlightAware ADS-B
Tue 09:06:03 PM 39.4670 -75.5259 45° Northeast 459 528 28,600 1,182 Climbing FlightAware ADS-B
Tue 09:06:38 PM 39.5195 -75.4572 45° Northeast 465 535 29,200 1,147 Climbing FlightAware ADS-B
Tue 09:07:11 PM 39.5700 -75.3895 46° Northeast 470 541 29,900 1,200 Climbing FlightAware ADS-B
Tue 09:07:43 PM 39.6188 -75.3271 45° Northeast 473 544 30,500 1,108 Climbing FlightAware ADS-B
Tue 09:08:16 PM 39.6696 -75.2572 47° Northeast 481 554 31,100 1,108 Climbing FlightAware ADS-B
Tue 09:08:48 PM 39.7163 -75.1907 48° Northeast 484 557 31,700 1,161 Climbing FlightAware ADS-B
Tue 09:09:18 PM 39.7617 -75.1258 48° Northeast 485 558 32,300 1,313 Climbing FlightAware ADS-B
Tue 09:09:52 PM 39.8136 -75.0526 47° Northeast 484 557 33,100 1,385 Climbing FlightAware ADS-B
Tue 09:10:23 PM 39.8606 -74.9858 47° Northeast 484 557 33,800 1,343 Climbing FlightAware ADS-B
Tue 09:10:59 PM 39.9140 -74.9090 48° Northeast 479 551 34,600 1,324 Climbing FlightAware ADS-B
Tue 09:11:31 PM 39.9622 -74.8408 47° Northeast 477 549 35,300 1,238 Climbing FlightAware ADS-B
Tue 09:12:02 PM 40.0067 -74.7753 48° Northeast 472 543 35,900 1,048 Climbing FlightAware ADS-B
Tue 09:12:34 PM 40.0540 -74.7080 47° Northeast 470 541 36,400 968 Climbing FlightAware ADS-B
Tue 09:13:04 PM 40.0979 -74.6452 48° Northeast 469 540 36,900 600 Climbing FlightAware ADS-B
Tue 09:13:34 PM 40.1419 -74.5823 48° Northeast 469 540 37,000 98 Climbing FlightAware ADS-B
Tue 09:14:05 PM 40.1870 -74.5172 48° Northeast 470 541 37,000 -98 Level FlightAware ADS-B
Tue 09:14:35 PM 40.2309 -74.4538 48° Northeast 469 540 36,900 -97 Descending FlightAware ADS-B
Tue 09:15:07 PM 40.2774 -74.3864 48° Northeast 468 539 36,900 90 Level FlightAware ADS-B
Tue 09:15:42 PM 40.3276 -74.3130 48° Northeast 466 536 37,000 88 Climbing FlightAware ADS-B
Tue 09:16:15 PM 40.3758 -74.2438 48° Northeast 466 536 37,000  Level FlightAware ADS-B
Tue 09:16:45 PM 40.4190 -74.1788 49° Northeast 465 535 37,000  Level FlightAware ADS-B
Tue 09:17:18 PM 40.4650 -74.1115 48° Northeast 464 534 37,000  Level FlightAware ADS-B
Tue 09:17:48 PM 40.5088 -74.0486 48° Northeast 463 533 37,000  Level FlightAware ADS-B
Tue 09:18:19 PM 40.5524 -73.9835 49° Northeast 466 536 37,000  Level FlightAware ADS-B
Tue 09:18:49 PM 40.5964 -73.9199 48° Northeast 468 539 37,000  Level FlightAware ADS-B
Tue 09:19:20 PM 40.6402 -73.8537 49° Northeast 470 541 37,000 -97 Level FlightAware ADS-B
Tue 09:19:51 PM 40.6856 -73.7872 48° Northeast 473 544 36,900  Descending FlightAware ADS-B
Tue 09:20:27 PM 40.7376 -73.7093 49° Northeast 475 547 37,000  Climbing FlightAware ADS-B
Tue 09:20:58 PM 40.7841 -73.6416 48° Northeast 480 552 36,900  Descending FlightAware ADS-B
Tue 09:21:30 PM 40.8308 -73.5714 49° Northeast 481 554 37,000 92 Climbing FlightAware ADS-B
Tue 09:22:03 PM 40.8803 -73.4965 49° Northeast 482 555 37,000  Level FlightAware ADS-B
Tue 09:22:35 PM 40.9277 -73.4256 48° Northeast 485 558 37,000  Level FlightAware ADS-B
Tue 09:23:06 PM 40.9723 -73.3587 49° Northeast 486 559 37,000  Level FlightAware ADS-B
Tue 09:23:36 PM 41.0173 -73.2918 48° Northeast 487 560 37,000  Level FlightAware ADS-B
Tue 09:24:08 PM 41.0654 -73.2201 48° Northeast 487 560 37,000  Level FlightAware ADS-B
Tue 09:24:40 PM 41.1126 -73.1482 49° Northeast 487 560 37,000  Level FlightAware ADS-B
Tue 09:25:10 PM 41.1574 -73.0808 49° Northeast 488 562 37,000  Level FlightAware ADS-B
Tue 09:25:42 PM 41.2043 -73.0088 49° Northeast 488 562 37,000  Level FlightAware ADS-B
Tue 09:26:12 PM 41.2489 -72.9413 49° Northeast 486 559 37,000  Level FlightAware ADS-B
Tue 09:26:45 PM 41.2977 -72.8669 49° Northeast 487 560 37,000  Level FlightAware ADS-B
Tue 09:27:18 PM 41.3459 -72.7925 49° Northeast 486 559 37,000  Level FlightAware ADS-B
Tue 09:27:49 PM 41.3916 -72.7224 49° Northeast 486 559 37,000  Level FlightAware ADS-B
Tue 09:28:19 PM 41.4367 -72.6546 48° Northeast 486 559 37,000  Level FlightAware ADS-B
Tue 09:28:58 PM 41.4940 -72.5664 49° Northeast 486 559 37,000  Level FlightAware ADS-B
Tue 09:29:53 PM 41.5810 -72.4630 42° Northeast 473 544 37,000  Level FlightAware ADS-B
Tue 09:30:33 PM 41.6550 -72.4050 30° Northeast 467 537 37,000  Level FlightAware ADS-B
Tue 09:31:18 PM 41.7400 -72.3390 30° Northeast 466 536 37,000  Level FlightAware ADS-B
Tue 09:31:58 PM 41.8160 -72.2810 30° Northeast 466 536 37,000  Level FlightAware ADS-B
Tue 09:32:33 PM 41.8750 -72.2350 30° Northeast 467 537 37,000  Level FlightAware ADS-B
Tue 09:33:13 PM 41.9540 -72.1740 30° Northeast 467 537 37,000  Level FlightAware ADS-B
Tue 09:34:06 PM 42.0540 -72.0980 29° Northeast 467 537 37,000  Level FlightAware ADS-B
Tue 09:34:46 PM 42.1250 -72.0410 31° Northeast 470 541 37,000  Level FlightAware ADS-B
Tue 09:35:26 PM 42.2040 -71.9760 31° Northeast 470 541 37,000  Level FlightAware ADS-B
Tue 09:36:13 PM 42.2930 -71.9030 31° Northeast 471 542 37,000  Level FlightAware ADS-B
Tue 09:36:53 PM 42.3690 -71.8420 31° Northeast 471 542 37,000  Level FlightAware ADS-B
Tue 09:37:36 PM 42.4470 -71.7780 31° Northeast 471 542 37,000  Level FlightAware ADS-B
Tue 09:38:18 PM 42.5250 -71.7140 31° Northeast 470 541 37,000  Level FlightAware ADS-B
Tue 09:38:58 PM 42.6000 -71.6520 31° Northeast 471 542 37,000 -67 Level FlightAware ADS-B
Tue 09:39:48 PM 42.6930 -71.5750 31° Northeast 472 543 36,900  Descending FlightAware ADS-B
Tue 09:41:00 PM 42.8260 -71.4640 31° Northeast 469 540 37,000 51 Climbing FlightAware ADS-B
Tue 09:41:45 PM 42.9120 -71.3930 31° Northeast 469 540 37,000  Level FlightAware ADS-B
Tue 09:42:24 PM 42.9830 -71.3340 31° Northeast 468 539 37,000  Level FlightAware ADS-B
Tue 09:43:09 PM 43.0600 -71.2680 32° Northeast 466 536 37,000  Level FlightAware ADS-B
Tue 09:44:35 PM 43.2250 -71.1300 31° Northeast 469 540 37,000  Level FlightAware ADS-B
Tue 09:45:15 PM 43.2980 -71.0690 31° Northeast 470 541 37,000 -74 Level FlightAware ADS-B
Tue 09:45:56 PM 43.3740 -71.0030 32° Northeast 471 542 36,900  Descending FlightAware ADS-B
Tue 09:46:38 PM 43.4510 -70.9380 31° Northeast 472 543 37,000 61 Climbing FlightAware ADS-B
Tue 09:47:35 PM 43.5590 -70.8460 32° Northeast 475 547 37,000  Level FlightAware ADS-B
Tue 09:48:20 PM 43.6420 -70.7750 32° Northeast 479 551 37,000  Level FlightAware ADS-B
Tue 09:48:54 PM 43.7050 -70.7200 32° Northeast 481 554 37,000  Level FlightAware ADS-B
Tue 09:49:45 PM 43.8030 -70.6370 31° Northeast 482 555 37,000  Level FlightAware ADS-B
Tue 09:50:25 PM 43.8790 -70.5700 32° Northeast 483 556 37,000  Level FlightAware ADS-B
Tue 09:51:15 PM 43.9750 -70.4870 32° Northeast 487 560 37,000  Level FlightAware ADS-B
Tue 09:52:06 PM 44.0700 -70.4040 32° Northeast 488 562 37,000 -73 Level FlightAware ADS-B
Tue 09:52:37 PM 44.1310 -70.3520 31° Northeast 488 562 36,900  Descending FlightAware ADS-B
Tue 09:54:12 PM 44.3120 -70.1920 32° Northeast 491 565 37,000  Climbing FlightAware ADS-B
Tue 09:54:50 PM 44.3800 -70.1310 33° Northeast 492 566 36,900  Descending FlightAware ADS-B
Tue 09:55:30 PM 44.4600 -70.0610 32° Northeast 494 568 37,000 73 Climbing FlightAware ADS-B
Tue 09:56:12 PM 44.5430 -69.9870 32° Northeast 496 571 37,000 152 Level FlightAware ADS-B
Tue 09:56:49 PM 44.6120 -69.9250 33° Northeast 496 571 37,200 578 Climbing FlightAware ADS-B
Tue 09:57:35 PM 44.7040 -69.8430 32° Northeast 497 572 37,800 824 Climbing FlightAware ADS-B
Tue 09:58:31 PM 44.8130 -69.7440 33° Northeast 497 572 38,600 647 Climbing FlightAware ADS-B
Tue 09:59:17 PM 44.9010 -69.6660 32° Northeast 491 565 38,900 267 Climbing FlightAware ADS-B
Tue 10:00:01 PM 44.9830 -69.5900 33° Northeast 482 555 39,000  Climbing FlightAware ADS-B
Tue 10:00:31 PM 45.0420 -69.5370 32° Northeast 481 554 38,900 -78 Descending FlightAware ADS-B
Tue 10:01:18 PM 45.1270 -69.4610 32° Northeast 484 557 38,900  Level FlightAware ADS-B
Tue 10:02:06 PM 45.2170 -69.3780 33° Northeast 485 558 38,900  Level FlightAware ADS-B
Tue 10:02:40 PM 45.2830 -69.3170 33° Northeast 487 560 38,900  Level FlightAware ADS-B
Tue 10:03:31 PM 45.3810 -69.2270 33° Northeast 490 564 38,900  Level FlightAware ADS-B
Tue 10:04:13 PM 45.4580 -69.1560 33° Northeast 491 565 38,900  Level FlightAware ADS-B
Tue 10:06:06 PM 45.6650 -68.9620 33° Northeast 496 571 38,900  Level FlightAware ADS-B
Tue 10:07:49 PM 45.8720 -68.7680 33° Northeast 493 567 38,900  Level FlightAware ADS-B
Tue 10:08:41 PM 45.9740 -68.6730 33° Northeast 484 557 38,900  Level FlightAware ADS-B
Tue 10:09:21 PM 46.0450 -68.6050 34° Northeast 477 549 38,900  Level FlightAware ADS-B
Tue 10:13:29 PM 46.5060 -68.1620 33° Northeast 502 578 38,900 15 Level FlightAware ADS-B
Tue 10:16:13 PM 46.8270 -67.8490 34° Northeast 511 588 39,000  Climbing FlightAware ADS-B
Tue 10:17:07 PM 46.9167 -67.7500 34° Northeast 510 587 38,900 -70 Descending Moncton Center
Tue 10:17:39 PM 46.9686 -67.6981 34° Northeast 508 585 38,900  Level Boston Center
Tue 10:18:07 PM 47.0333 -67.6167 41° Northeast 520 598 38,900  Level Moncton Center
Tue 10:19:07 PM 47.1500 -67.5000 34° Northeast 520 598 38,900  Level Moncton Center
Tue 10:19:37 PM 47.2308 -67.4431 26° Northeast 519 597 38,900  Level Boston Center
Tue 10:20:38 PM 47.3464 -67.3222 35° Northeast 519 597 38,900  Level Boston Center
Tue 10:21:07 PM 47.4000 -67.2667 35° Northeast 510 587 38,900  Level Moncton Center
Tue 10:22:07 PM 47.5000 -67.1167 45° Northeast 520 598 38,900  Level Moncton Center
Tue 10:23:07 PM 47.6167 -66.9833 38° Northeast 510 587 38,900  Level Moncton Center
Tue 10:24:07 PM 47.7167 -66.8667 38° Northeast 510 587 38,900  Level Moncton Center
Tue 10:25:07 PM 47.8333 -66.7167 41° Northeast 510 587 38,900  Level Moncton Center
Tue 10:26:07 PM 47.9500 -66.5667 41° Northeast 500 575 38,900  Level Moncton Center
Tue 10:27:07 PM 48.0500 -66.4500 38° Northeast 520 598 38,900  Level Moncton Center
Tue 10:28:07 PM 48.1667 -66.3000 41° Northeast 520 598 38,900  Level Moncton Center
Tue 10:29:07 PM 48.2667 -66.1500 45° Northeast 530 610 38,900  Level Moncton Center
Tue 10:30:07 PM 48.4000 -66.0167 34° Northeast 520 598 38,900  Level Moncton Center
Tue 10:31:07 PM 48.5000 -65.8833 41° Northeast 520 598 38,900  Level Moncton Center
Tue 10:32:07 PM 48.6167 -65.7333 40° Northeast 520 598 38,900  Level Moncton Center
Tue 10:33:07 PM 48.7167 -65.5833 45° Northeast 520 598 38,900  Level Moncton Center
Tue 10:34:07 PM 48.8167 -65.4667 38° Northeast 520 598 38,900  Level Moncton Center
Tue 10:35:07 PM 48.9333 -65.3167 40° Northeast 520 598 38,900  Level Moncton Center
Tue 10:36:07 PM 49.0333 -65.1667 44° Northeast 520 598 38,900  Level Moncton Center
Tue 10:37:07 PM 49.1500 -65.0167 40° Northeast 520 598 38,900  Level Moncton Center
Tue 10:38:07 PM 49.2500 -64.8833 41° Northeast 520 598 38,900  Level Moncton Center
Tue 10:39:07 PM 49.3667 -64.7333 40° Northeast 520 598 38,900  Level Moncton Center
Tue 10:40:07 PM 49.4667 -64.5833 44° Northeast 520 598 38,900  Level Moncton Center
Tue 10:41:07 PM 49.5667 -64.4167 47° Northeast 520 598 38,900  Level Moncton Center
Tue 10:42:07 PM 49.7000 -64.2667 36° Northeast 520 598 38,900  Level Moncton Center
Tue 10:43:07 PM 49.8000 -64.1333 41° Northeast 520 598 38,900  Level Moncton Center
Tue 10:44:07 PM 49.9167 -63.9833 40° Northeast 520 598 38,900  Level Moncton Center
Tue 10:45:07 PM 50.0167 -63.8167 47° Northeast 520 598 38,900  Level Moncton Center
Tue 10:46:07 PM 50.1167 -63.6667 44° Northeast 520 598 38,900  Level Moncton Center
Tue 10:47:07 PM 50.2167 -63.5333 40° Northeast 520 598 38,900  Level Moncton Center
Tue 10:48:07 PM 50.3333 -63.3667 42° Northeast 520 598 38,900  Level Moncton Center
Tue 10:49:07 PM 50.4333 -63.2167 44° Northeast 520 598 38,900  Level Moncton Center
Tue 10:50:07 PM 50.5500 -63.0500 42° Northeast 520 598 38,900  Level Moncton Center
Tue 10:51:07 PM 50.6500 -62.9000 44° Northeast 530 610 38,900  Level Moncton Center
Tue 10:52:07 PM 50.7667 -62.7333 42° Northeast 520 598 38,900  Level Moncton Center
Tue 10:53:07 PM 50.8667 -62.6000 40° Northeast 530 610 38,900  Level Moncton Center
Tue 10:54:07 PM 50.9833 -62.4333 42° Northeast 530 610 38,900  Level Moncton Center
Tue 10:55:07 PM 51.0833 -62.2667 46° Northeast 520 598 38,900  Level Moncton Center
Tue 10:56:07 PM 51.2000 -62.1000 42° Northeast 530 610 38,900  Level Moncton Center
Tue 10:57:07 PM 51.2833 -61.9667 45° Northeast 520 598 38,900  Level Moncton Center
Tue 10:58:07 PM 51.4000 -61.7667 47° Northeast 530 610 38,900  Level Moncton Center
Tue 10:59:07 PM 51.5000 -61.6333 40° Northeast 530 610 38,900  Level Moncton Center
Tue 11:00:07 PM 51.6167 -61.4667 42° Northeast 530 610 38,900  Level Moncton Center
Tue 11:01:07 PM 51.7167 -61.2833 49° Northeast 530 610 38,900  Level Moncton Center
Tue 11:02:07 PM 51.8167 -61.1167 46° Northeast 530 610 38,900  Level Moncton Center
Tue 11:03:07 PM 51.9167 -60.9500 46° Northeast 520 598 38,900  Level Moncton Center
Tue 11:04:07 PM 52.0333 -60.7833 41° Northeast 520 598 38,900  Level Moncton Center
Tue 11:05:07 PM 52.1333 -60.6167 46° Northeast 520 598 38,900  Level Moncton Center
Tue 11:06:07 PM 52.2167 -60.4333 53° Northeast 520 598 38,900  Level Moncton Center
Tue 11:07:07 PM 52.3167 -60.2667 46° Northeast 520 598 38,900  Level Moncton Center
Tue 11:08:07 PM 52.4167 -60.0833 48° Northeast 520 598 38,900  Level Moncton Center
Tue 11:09:07 PM 52.5167 -59.9167 45° Northeast 510 587 38,900  Level Moncton Center
Tue 11:10:08 PM 52.6167 -59.7333 48° Northeast 510 587 38,900  Level Moncton Center
Tue 11:11:07 PM 52.7000 -59.5667 50° Northeast 510 587 38,900  Level Moncton Center
Tue 11:12:07 PM 52.8000 -59.3833 48° Northeast 510 587 38,900  Level Moncton Center
Tue 11:13:07 PM 52.9000 -59.2167 45° Northeast 510 587 38,900  Level Moncton Center
Tue 11:14:07 PM 52.9833 -59.0667 47° Northeast 510 587 38,900  Level Moncton Center
Tue 11:15:07 PM 53.0833 -58.8500 52° Northeast 510 587 38,900  Level Moncton Center
Tue 11:16:07 PM 53.1667 -58.7000 47° Northeast 510 587 38,900  Level Moncton Center
Tue 11:16:40 PM 53.2333 -58.6000 42° Northeast 510 587 38,900  Level Gander Center
Tue 11:17:07 PM 53.2833 -58.5000 50° Northeast 510 587 38,900  Level Moncton Center
Tue 11:18:07 PM 53.3667 -58.3333 50° Northeast 510 587 38,900  Level Moncton Center
Tue 11:19:07 PM 53.4667 -58.1667 45° Northeast 510 587 38,900  Level Moncton Center
Tue 11:20:07 PM 53.5500 -57.9833 53° Northeast 510 587 38,900  Level Moncton Center
Tue 11:20:40 PM 53.6167 -57.8667 46° Northeast 510 587 38,900  Level Gander Center
Tue 11:21:40 PM 53.7000 -57.7000 50° Northeast 510 587 38,900  Level Gander Center
Tue 11:22:07 PM 53.7333 -57.6167 56° Northeast 510 587 38,900  Level Moncton Center
Tue 11:23:07 PM 53.8333 -57.4167 50° Northeast 510 587 38,900  Level Moncton Center
Tue 11:24:07 PM 53.9333 -57.2333 47° Northeast 510 587 38,900  Level Moncton Center
Tue 11:25:07 PM 54.0000 -57.0500 58° Northeast 510 587 38,900  Level Moncton Center
Tue 11:26:07 PM 54.1000 -56.8667 47° Northeast 510 587 38,900  Level Moncton Center
Tue 11:27:07 PM 54.2000 -56.6833 47° Northeast 510 587 38,900  Level Moncton Center
Tue 11:28:07 PM 54.2833 -56.4833 54° Northeast 510 587 38,900  Level Moncton Center
Tue 11:29:07 PM 54.3833 -56.3000 47° Northeast 510 587 38,900  Level Moncton Center
Tue 11:30:07 PM 54.4667 -56.1333 49° Northeast 510 587 38,900  Level Moncton Center
Tue 11:31:07 PM 54.5500 -55.9500 52° Northeast 500 575 38,900  Level Moncton Center
Tue 11:32:07 PM 54.6500 -55.7500 49° Northeast 500 575 38,900 50 Level Moncton Center
Tue 11:33:06 PM 54.6167 -55.8667 52° Northeast 487 560 39,000  Climbing ETMS Enhanced Traffic Management System
Tue 11:33:40 PM 54.7833 -55.4500 52° Northeast 490 564 38,900 -98 Descending Gander Center
Tue 11:34:07 PM 54.8167 -55.3667 55° Northeast 490 564 38,900  Level Moncton Center
Tue 11:35:07 PM 54.9000 -55.2000 49° Northeast 490 564 38,900  Level Moncton Center
Tue 11:36:07 PM 54.9833 -54.9833 56° Northeast 490 564 38,900  Level Moncton Center
Tue 11:37:07 PM 55.0667 -54.8167 49° Northeast 490 564 38,900  Level Moncton Center
Tue 11:38:07 PM 55.1500 -54.6167 54° Northeast 490 564 38,900  Level Moncton Center
Tue 11:38:40 PM 55.1833 -54.5167 60° Northeast 490 564 38,900  Level Gander Center
Tue 11:39:40 PM 55.2667 -54.3167 54° Northeast 480 552 38,900  Level Gander Center
Tue 11:40:40 PM 55.3500 -54.1667 46° Northeast 490 564 38,900  Level Gander Center
Tue 11:41:40 PM 55.4167 -53.9667 60° Northeast 480 552 38,900  Level Gander Center
Tue 11:42:40 PM 55.5000 -53.7833 51° Northeast 490 564 38,900  Level Gander Center
Tue 11:43:40 PM 55.5833 -53.5833 54° Northeast 490 564 38,900  Level Gander Center
Tue 11:44:40 PM 55.6500 -53.4000 57° Northeast 480 552 38,900  Level Gander Center
Tue 11:45:40 PM 55.7500 -53.2000 48° Northeast 480 552 38,900  Level Gander Center
Tue 11:46:40 PM 55.8167 -53.0000 59° Northeast 480 552 38,900  Level Gander Center
Tue 11:47:40 PM 55.8833 -52.8167 57° Northeast 490 564 38,900  Level Gander Center
Tue 11:48:40 PM 55.9667 -52.6167 53° Northeast 490 564 38,900  Level Gander Center
Tue 11:49:40 PM 56.0500 -52.4167 53° Northeast 490 564 38,900  Level Gander Center
Tue 11:50:40 PM 56.1333 -52.2167 53° Northeast 490 564 38,900  Level Gander Center
Tue 11:51:40 PM 56.2167 -52.0167 53° Northeast 490 564 38,900  Level Gander Center
Tue 11:52:23 PM 56.2833 -51.8833 48° Northeast 270 311 38,900  Level Gander Center
Tue 11:53:23 PM 56.3833 -51.6833 48° Northeast 420 483 38,900  Level Gander Center
Tue 11:54:23 PM 56.4500 -51.4500 63° Northeast 510 587 38,900 10 Level Gander Center
Tue 11:56:00 PM 56.5705 -51.1395 55° Northeast  Level FlightAware Approximate
Wed 12:03:00 AM 57.0834 -49.7723 56° Northeast  Level FlightAware Approximate
Wed 12:03:00 AM 57.0000 -50.0000 56° Northeast 481 554 39,000  Level ETMS Enhanced Traffic Management System
Wed 12:04:00 AM 57.1555 -49.5739 56° Northeast  Level FlightAware Approximate
Wed 12:04:05 AM 57.1833 -49.4167 57° Northeast 480 552 38,900  Level Gander Center
Wed 12:05:00 AM 57.2272 -49.3747 56° Northeast  Level FlightAware Approximate
Wed 12:05:05 AM 57.2667 -49.2167 52° Northeast 480 552 38,900  Level Gander Center
Wed 12:06:00 AM 57.2986 -49.1748 56° Northeast  Level FlightAware Approximate
Wed 12:06:05 AM 57.3333 -49.0000 60° Northeast 480 552 38,900  Level Gander Center
Wed 12:07:00 AM 57.3697 -48.9741 57° Northeast  Level FlightAware Approximate
Wed 12:07:05 AM 57.4000 -48.7833 60° Northeast 480 552 38,900  Level Gander Center
Wed 12:08:00 AM 57.4405 -48.7726 57° Northeast  Level FlightAware Approximate
Wed 12:08:05 AM 57.4667 -48.5833 58° Northeast 480 552 38,900  Level Gander Center
Wed 12:09:00 AM 57.5883 -48.3469 57° Northeast 481 554 39,000  Climbing FlightAware Transoceanic
Wed 12:09:05 AM 57.5500 -48.4000 50° Northeast 480 552 38,900 -92 Descending Gander Center
Wed 12:10:05 AM 57.6167 -48.1833 60° Northeast 480 552 38,900  Level Gander Center
Wed 12:11:05 AM 57.7000 -47.9667 54° Northeast 480 552 38,900  Level Gander Center
Wed 12:12:05 AM 57.7500 -47.7500 67° East 480 552 38,900  Level Gander Center
Wed 12:13:05 AM 57.8333 -47.5333 54° Northeast 490 564 38,900  Level Gander Center
Wed 12:14:05 AM 57.9000 -47.3167 60° Northeast 490 564 38,900  Level Gander Center
Wed 12:15:05 AM 57.9833 -47.1000 54° Northeast 490 564 38,900  Level Gander Center
Wed 12:16:05 AM 58.0333 -46.8833 66° East 480 552 38,900  Level Gander Center
Wed 12:17:05 AM 58.1167 -46.6500 56° Northeast 480 552 38,900  Level Gander Center
Wed 12:18:05 AM 58.1833 -46.4667 55° Northeast 480 552 38,900  Level Gander Center
Wed 12:19:05 AM 58.2500 -46.2500 60° Northeast 480 552 38,900  Level Gander Center
Wed 12:20:05 AM 58.3167 -46.0333 60° Northeast 480 552 38,900  Level Gander Center
Wed 12:21:05 AM 58.3833 -45.8000 61° Northeast 480 552 38,900  Level Gander Center
Wed 12:22:05 AM 58.4500 -45.5833 59° Northeast 480 552 38,900  Level Gander Center
Wed 12:23:05 AM 58.5167 -45.3500 61° Northeast 480 552 38,900  Level Gander Center
Wed 12:24:05 AM 58.5833 -45.1333 59° Northeast 480 552 38,900  Level Gander Center
Wed 12:25:05 AM 58.6500 -44.9000 61° Northeast 480 552 38,900  Level Gander Center
Wed 12:26:05 AM 58.7333 -44.6667 55° Northeast 480 552 38,900  Level Gander Center
Wed 12:27:05 AM 58.7833 -44.4833 62° Northeast 480 552 38,900  Level Gander Center
Wed 12:28:05 AM 58.8667 -44.2500 55° Northeast 480 552 38,900  Level Gander Center
Wed 12:29:05 AM 58.9167 -44.0167 67° East 480 552 38,900  Level Gander Center
Wed 12:30:05 AM 58.9833 -43.7833 61° Northeast 490 564 38,900  Level Gander Center
Wed 12:31:05 AM 59.0333 -43.5667 66° East 480 552 38,900  Level Gander Center
Wed 12:32:05 AM 59.1167 -43.3333 55° Northeast 480 552 38,900  Level Gander Center
Wed 12:33:05 AM 59.1667 -43.1000 67° East 490 564 38,900  Level Gander Center
Wed 12:34:05 AM 59.2333 -42.8667 61° Northeast 490 564 38,900  Level Gander Center
Wed 12:35:05 AM 59.2833 -42.6333 67° East 490 564 38,900  Level Gander Center
Wed 12:36:05 AM 59.3500 -42.3833 62° Northeast 490 564 38,900  Level Gander Center
Wed 12:37:05 AM 59.4167 -42.1667 59° Northeast 490 564 38,900  Level Gander Center
Wed 12:38:05 AM 59.4833 -41.9167 62° Northeast 490 564 38,900  Level Gander Center
Wed 12:39:05 AM 59.5500 -41.7167 57° Northeast 490 564 38,900  Level Gander Center
Wed 12:40:05 AM 59.6000 -41.4833 67° East 490 564 38,900  Level Gander Center
Wed 12:41:05 AM 59.6667 -41.2333 62° Northeast 490 564 38,900  Level Gander Center
Wed 12:42:05 AM 59.7167 -41.0000 67° East 480 552 38,900  Level Gander Center
Wed 12:43:05 AM 59.7833 -40.7500 62° Northeast 480 552 38,900  Level Gander Center
Wed 12:44:05 AM 59.8333 -40.5167 67° East 480 552 38,900  Level Gander Center
Wed 12:45:05 AM 59.9000 -40.2667 62° Northeast 480 552 38,900  Level Gander Center
Wed 12:46:05 AM 59.9500 -40.0333 67° East 480 552 38,900  Level Gander Center
Wed 12:47:05 AM 60.0167 -39.8167 58° Northeast 480 552 38,900  Level Gander Center
Wed 12:48:05 AM 60.0833 -39.6000 58° Northeast 480 552 38,900  Level Gander Center
Wed 12:49:05 AM 60.1667 -39.4000 50° Northeast 480 552 38,900  Level Gander Center
Wed 12:50:05 AM 60.2500 -39.1833 52° Northeast 480 552 38,900  Level Gander Center
Wed 12:51:05 AM 60.3167 -38.9500 60° Northeast 480 552 38,900  Level Gander Center
Wed 12:52:05 AM 60.4000 -38.7667 47° Northeast 480 552 38,900  Level Gander Center
Wed 12:53:05 AM 60.4667 -38.5333 60° Northeast 480 552 38,900  Level Gander Center
Wed 12:54:05 AM 60.5500 -38.3000 54° Northeast 480 552 38,900  Level Gander Center
Wed 12:55:05 AM 60.6167 -38.1167 53° Northeast 480 552 38,900  Level Gander Center
Wed 12:56:05 AM 60.7000 -37.8833 54° Northeast 480 552 38,900  Level Gander Center
Wed 12:57:05 AM 60.7667 -37.6500 60° Northeast 480 552 38,900  Level Gander Center
Wed 12:58:05 AM 60.8500 -37.4500 49° Northeast 480 552 38,900  Level Gander Center
Wed 12:59:05 AM 60.9167 -37.2167 59° Northeast 480 552 38,900  Level Gander Center
Wed 01:00:05 AM 61.0000 -36.9833 54° Northeast 480 552 38,900  Level Gander Center
Wed 01:01:05 AM 61.0667 -36.7833 55° Northeast 480 552 38,900  Level Gander Center
Wed 01:02:05 AM 61.1333 -36.5333 61° Northeast 480 552 38,900  Level Gander Center
Wed 01:03:05 AM 61.2000 -36.3000 59° Northeast 480 552 38,900  Level Gander Center
Wed 01:04:05 AM 61.2833 -36.1000 49° Northeast 480 552 38,900  Level Gander Center
Wed 01:07:38 AM 61.5333 -35.2667 58° Northeast 490 564 38,900  Level Gander Center
Wed 01:08:38 AM 61.6167 -35.0167 55° Northeast 480 552 38,900 Level Gander Center
Wed 01:10:00 AM 61.7160 -34.7027 56° Northeast  Level FlightAware Approximate
Wed 01:17:00 AM 62.2130 -33.0626 56° Northeast  Level FlightAware Approximate
Wed 01:18:00 AM 62.2797 -32.8195 59° Northeast  Level FlightAware Approximate
Wed 01:19:00 AM 62.3456 -32.5758 60° Northeast  Level FlightAware Approximate
Wed 01:20:00 AM 62.4111 -32.3311 60° Northeast  Level FlightAware Approximate
Wed 01:21:00 AM 62.4762 -32.0852 60° Northeast  Level FlightAware Approximate
Wed 01:22:00 AM 62.5408 -31.8383 60° Northeast  Level FlightAware Approximate
Wed 01:23:00 AM 62.6050 -31.5904 61° Northeast  Level FlightAware Approximate
Wed 01:24:00 AM 62.6687 -31.3413 61° Northeast  Level FlightAware Approximate
Wed 01:25:00 AM 62.7320 -31.0912 61° Northeast  Level FlightAware Approximate
Wed 01:26:00 AM 62.7949 -30.8400 61° Northeast  Level FlightAware Approximate
Wed 01:27:00 AM 62.8573 -30.5878 61° Northeast  Level FlightAware Approximate
Wed 01:28:00 AM 62.9193 -30.3345 62° Northeast  Level FlightAware Approximate
Wed 01:29:00 AM 62.9808 -30.0801 62° Northeast  Level FlightAware Approximate
Wed 01:30:00 AM 63.0298 -29.8131 71° East  Level FlightAware Approximate
Wed 01:30:00 AM 63.0000 -30.0000 70° East 470 541 39,000  Level ETMS Enhanced Traffic Management System
Wed 01:31:00 AM 63.0728 -29.5399 71° East  Level FlightAware Approximate
Wed 01:32:00 AM 63.1152 -29.2660 71° East  Level FlightAware Approximate
Wed 01:32:50 AM 63.1380 -29.1710 71° East 473 544 38,900  Level FlightAware ADS-B
Wed 01:33:30 AM 63.1680 -28.9890 70° East 473 544 38,900  Level FlightAware ADS-B
Wed 01:34:15 AM 63.2010 -28.7800 71° East 474 545 38,900  Level FlightAware ADS-B
Wed 01:34:55 AM 63.2310 -28.5960 70° East 474 545 38,900  Level FlightAware ADS-B
Wed 01:35:40 AM 63.2630 -28.3940 71° East 476 548 38,900 92 Level FlightAware ADS-B
Wed 01:36:00 AM 63.3045 -28.0810 72° East 470 541 39,000  Climbing FlightAware Transoceanic
Wed 01:36:20 AM 63.2910 -28.2100 72° East 476 548 38,900 -100 Descending FlightAware ADS-B
Wed 01:37:00 AM 63.3170 -28.0430 71° East 477 549 38,900  Level FlightAware ADS-B
Wed 01:37:45 AM 63.3510 -27.8200 71° East 478 550 38,900 -212 Level FlightAware ADS-B
Wed 01:38:25 AM 63.3800 -27.6240 72° East 477 549 38,600 -1,341 Descending FlightAware ADS-B
Wed 01:39:10 AM 63.4110 -27.4190 71° East 479 551 37,000 -2,329 Descending FlightAware ADS-B
Wed 01:39:50 AM 63.4390 -27.2310 72° East 479 551 35,300 -2,682 Descending FlightAware ADS-B
Wed 01:40:35 AM 63.4700 -27.0190 72° East 479 551 33,200 -2,894 Descending FlightAware ADS-B
Wed 01:41:15 AM 63.4960 -26.8360 72° East 479 551 31,200 -3,150 Descending FlightAware ADS-B
Wed 01:41:55 AM 63.5240 -26.6380 72° East 475 547 29,000 -2,850 Descending FlightAware ADS-B
Wed 01:42:35 AM 63.5500 -26.4540 72° East 460 529 27,400 -2,400 Descending FlightAware ADS-B
Wed 01:43:20 AM 63.5780 -26.2570 72° East 445 512 25,600 -2,471 Descending FlightAware ADS-B
Wed 01:44:00 AM 63.6020 -26.0830 73° East 432 497 23,900 -2,400 Descending FlightAware ADS-B
Wed 01:44:45 AM 63.6280 -25.8900 73° East 416 479 22,200 -2,200 Descending FlightAware ADS-B
Wed 01:45:30 AM 63.6520 -25.7100 73° East 403 464 20,600 -2,188 Descending FlightAware ADS-B
Wed 01:46:10 AM 63.6730 -25.5530 73° East 390 449 19,100 -2,160 Descending FlightAware ADS-B
Wed 01:46:45 AM 63.6910 -25.4190 73° East 379 436 17,900 -1,976 Descending FlightAware ADS-B
Wed 01:47:35 AM 63.7140 -25.2390 74° East 368 423 16,300 -2,047 Descending FlightAware ADS-B
Wed 01:48:10 AM 63.7320 -25.1050 73° East 360 414 15,000 -2,259 Descending FlightAware ADS-B
Wed 01:49:00 AM 63.7550 -24.9270 74° East 351 404 13,100 -2,259 Descending FlightAware ADS-B
Wed 01:49:35 AM 63.7710 -24.8010 74° East 346 398 11,800 -1,875 Descending FlightAware ADS-B
Wed 01:50:20 AM 63.7900 -24.6500 74° East 327 376 10,600 -867 Descending FlightAware ADS-B
Wed 01:51:05 AM 63.8070 -24.5100 75° East 282 325 10,500 -212 Descending FlightAware ADS-B
Wed 01:51:45 AM 63.8200 -24.4030 75° East 261 300 10,300 -600 Descending FlightAware ADS-B
Wed 01:52:15 AM 63.8300 -24.3220 74° East 269 310 9,800 -982 Descending FlightAware ADS-B
Wed 01:52:40 AM 63.8380 -24.2560 75° East 273 314 9,400 -1,091 Descending FlightAware ADS-B
Wed 01:53:10 AM 63.8490 -24.1730 73° East 277 319 8,800 -1,100 Descending FlightAware ADS-B
Wed 01:53:40 AM 63.8590 -24.0890 75° East 272 313 8,300 -982 Descending FlightAware ADS-B
Wed 01:54:05 AM 63.8670 -24.0210 75° East 263 303 7,900 -873 Descending FlightAware ADS-B
Wed 01:54:35 AM 63.8760 -23.9430 75° East 252 290 7,500 -873 Descending FlightAware ADS-B
Wed 01:55:00 AM 63.8840 -23.8770 75° East 257 296 7,100 -982 Descending FlightAware ADS-B
Wed 01:55:30 AM 63.8930 -23.8000 75° East 257 296 6,600 -1,000 Descending FlightAware ADS-B
Wed 01:56:00 AM 63.9030 -23.7200 74° East 251 289 6,100 -873 Descending FlightAware ADS-B
Wed 01:56:25 AM 63.9100 -23.6600 75° East 249 287 5,800 -800 Descending FlightAware ADS-B
Wed 01:56:30 AM 63.9110 -23.6550 66° East 248 285 5,700 -1,200 Descending FlightAware ADS-B
Wed 01:59:00 AM 63.9403 -22.9074 78° East  Level FlightAware Approximate
Wed 02:00:00 AM 63.9667 -22.6167 78° East  Level FlightAware Approximate
Wed 02:01:00 AM 63.9850 -22.6056 78° East  Level Estimated
Wed 02:02:00 AM 63.9850 -22.6056 78° East  Level Estimated
Wed 02:03:00 AM 63.9850 -22.6056 78° East  Level Estimated
Wed 02:04:00 AM 63.9850 -22.6056 78° East  Level Estimated
Wed 02:05:00 AM 63.9850 -22.6056 78° East  Level Estimated
Wed 02:06:00 AM 63.9850 -22.6056 78° East  Level Estimated
Wed 02:07:00 AM 63.9850 -22.6056 78° East  Level Estimated
Wed 02:08:00 AM 63.9850 -22.6056 78° East  Level Estimated
Wed 02:09:00 AM 63.9850 -22.6056 78° East  Level Estimated
Wed 02:10:00 AM 63.9850 -22.6056 78° East  Level Estimated
Wed 02:11:00 AM 63.9850 -22.6056 78° East  Level Estimated
Wed 02:12:00 AM 63.9850 -22.6056 78° East  Level Estimated
Wed 02:13:00 AM 63.9850 -22.6056 78° East  Level Estimated
Wed 02:14:00 AM 63.9850 -22.6056 78° East  Level Estimated
Wed 02:15:00 AM 63.9850 -22.6056 78° East  Level Estimated
Wed 02:16:00 AM 63.9850 -22.6056 78° East  Level Estimated
Wed 02:17:00 AM 63.9850 -22.6056 78° East  Level Estimated
Wed 02:18:00 AM 63.9850 -22.6056 78° East  Level Estimated

Login

Don't have an account? Register now (free) for customized features, flight alerts, and more!